sensor_id;sensor_type;location;lat;lon;timestamp;P1;durP1;ratioP1;P2;durP2;ratioP2
8564;SDS011;4320;51.498;6.556;2023-02-15T00:00:15;31.73;;;16.70;;
8564;SDS011;4320;51.498;6.556;2023-02-15T00:02:41;28.83;;;16.87;;
8564;SDS011;4320;51.498;6.556;2023-02-15T00:05:07;31.87;;;17.80;;
8564;SDS011;4320;51.498;6.556;2023-02-15T00:07:33;28.67;;;16.97;;
8564;SDS011;4320;51.498;6.556;2023-02-15T00:09:58;28.60;;;17.20;;
8564;SDS011;4320;51.498;6.556;2023-02-15T00:12:24;28.33;;;16.37;;
8564;SDS011;4320;51.498;6.556;2023-02-15T00:14:50;27.30;;;16.00;;
8564;SDS011;4320;51.498;6.556;2023-02-15T00:17:15;26.57;;;16.40;;
8564;SDS011;4320;51.498;6.556;2023-02-15T00:19:41;27.03;;;16.30;;
8564;SDS011;4320;51.498;6.556;2023-02-15T00:22:07;33.87;;;17.50;;
8564;SDS011;4320;51.498;6.556;2023-02-15T00:24:32;30.23;;;17.77;;
8564;SDS011;4320;51.498;6.556;2023-02-15T00:26:58;28.10;;;16.00;;
8564;SDS011;4320;51.498;6.556;2023-02-15T00:29:23;26.43;;;16.47;;
8564;SDS011;4320;51.498;6.556;2023-02-15T00:31:50;30.67;;;17.13;;
8564;SDS011;4320;51.498;6.556;2023-02-15T00:34:18;28.13;;;16.87;;
8564;SDS011;4320;51.498;6.556;2023-02-15T00:36:45;27.70;;;17.50;;
8564;SDS011;4320;51.498;6.556;2023-02-15T00:39:12;31.53;;;17.37;;
8564;SDS011;4320;51.498;6.556;2023-02-15T00:41:38;29.57;;;17.40;;
8564;SDS011;4320;51.498;6.556;2023-02-15T00:44:04;29.57;;;17.67;;
8564;SDS011;4320;51.498;6.556;2023-02-15T00:46:30;27.63;;;16.87;;
8564;SDS011;4320;51.498;6.556;2023-02-15T00:48:56;29.70;;;17.97;;
8564;SDS011;4320;51.498;6.556;2023-02-15T00:51:21;29.10;;;16.83;;
8564;SDS011;4320;51.498;6.556;2023-02-15T00:53:47;28.80;;;17.97;;
8564;SDS011;4320;51.498;6.556;2023-02-15T00:56:13;33.13;;;19.57;;
8564;SDS011;4320;51.498;6.556;2023-02-15T00:58:39;32.17;;;18.40;;
8564;SDS011;4320;51.498;6.556;2023-02-15T01:01:07;27.83;;;17.20;;
8564;SDS011;4320;51.498;6.556;2023-02-15T01:03:41;30.70;;;18.10;;
8564;SDS011;4320;51.498;6.556;2023-02-15T01:06:08;30.83;;;17.73;;
8564;SDS011;4320;51.498;6.556;2023-02-15T01:08:34;31.20;;;18.03;;
8564;SDS011;4320;51.498;6.556;2023-02-15T01:11:04;32.23;;;18.80;;
8564;SDS011;4320;51.498;6.556;2023-02-15T01:13:31;31.27;;;19.20;;
8564;SDS011;4320;51.498;6.556;2023-02-15T01:15:57;33.30;;;18.33;;
8564;SDS011;4320;51.498;6.556;2023-02-15T01:18:22;32.37;;;18.83;;
8564;SDS011;4320;51.498;6.556;2023-02-15T01:20:48;27.13;;;17.50;;
8564;SDS011;4320;51.498;6.556;2023-02-15T01:23:14;28.77;;;17.10;;
8564;SDS011;4320;51.498;6.556;2023-02-15T01:25:40;30.87;;;18.13;;
8564;SDS011;4320;51.498;6.556;2023-02-15T01:28:06;34.43;;;19.33;;
8564;SDS011;4320;51.498;6.556;2023-02-15T01:30:32;31.60;;;17.83;;
8564;SDS011;4320;51.498;6.556;2023-02-15T01:32:58;30.90;;;18.67;;
8564;SDS011;4320;51.498;6.556;2023-02-15T01:35:25;35.23;;;19.63;;
8564;SDS011;4320;51.498;6.556;2023-02-15T01:37:51;31.73;;;19.57;;
8564;SDS011;4320;51.498;6.556;2023-02-15T01:40:17;31.57;;;19.40;;
8564;SDS011;4320;51.498;6.556;2023-02-15T01:42:44;31.23;;;19.20;;
8564;SDS011;4320;51.498;6.556;2023-02-15T01:47:53;35.60;;;18.50;;
8564;SDS011;4320;51.498;6.556;2023-02-15T01:50:25;33.53;;;18.80;;
8564;SDS011;4320;51.498;6.556;2023-02-15T01:53:08;32.30;;;18.77;;
8564;SDS011;4320;51.498;6.556;2023-02-15T01:55:48;32.67;;;18.47;;
8564;SDS011;4320;51.498;6.556;2023-02-15T01:58:27;33.90;;;18.83;;
8564;SDS011;4320;51.498;6.556;2023-02-15T02:00:57;31.00;;;19.03;;
8564;SDS011;4320;51.498;6.556;2023-02-15T02:06:14;34.60;;;18.67;;
8564;SDS011;4320;51.498;6.556;2023-02-15T02:08:40;36.23;;;19.87;;
8564;SDS011;4320;51.498;6.556;2023-02-15T02:11:10;35.03;;;18.73;;
8564;SDS011;4320;51.498;6.556;2023-02-15T02:13:37;32.40;;;18.30;;
8564;SDS011;4320;51.498;6.556;2023-02-15T02:30:35;33.13;;;18.57;;
8564;SDS011;4320;51.498;6.556;2023-02-15T02:47:16;33.40;;;19.57;;
8564;SDS011;4320;51.498;6.556;2023-02-15T02:49:51;33.67;;;19.47;;
8564;SDS011;4320;51.498;6.556;2023-02-15T02:55:15;39.73;;;20.97;;
8564;SDS011;4320;51.498;6.556;2023-02-15T02:58:04;38.30;;;21.07;;
8564;SDS011;4320;51.498;6.556;2023-02-15T03:00:54;36.33;;;21.00;;
8564;SDS011;4320;51.498;6.556;2023-02-15T03:03:41;36.03;;;20.57;;
8564;SDS011;4320;51.498;6.556;2023-02-15T03:06:11;35.23;;;19.90;;
8564;SDS011;4320;51.498;6.556;2023-02-15T03:08:44;35.50;;;19.67;;
8564;SDS011;4320;51.498;6.556;2023-02-15T03:11:14;35.97;;;20.20;;
8564;SDS011;4320;51.498;6.556;2023-02-15T03:13:40;35.90;;;20.50;;
8564;SDS011;4320;51.498;6.556;2023-02-15T03:16:07;35.30;;;19.73;;
8564;SDS011;4320;51.498;6.556;2023-02-15T03:19:00;36.47;;;19.93;;
8564;SDS011;4320;51.498;6.556;2023-02-15T03:21:35;34.47;;;19.60;;
8564;SDS011;4320;51.498;6.556;2023-02-15T03:24:15;35.10;;;19.80;;
8564;SDS011;4320;51.498;6.556;2023-02-15T03:26:45;34.23;;;18.73;;
8564;SDS011;4320;51.498;6.556;2023-02-15T03:29:13;34.33;;;19.10;;
8564;SDS011;4320;51.498;6.556;2023-02-15T03:31:42;35.23;;;20.63;;
8564;SDS011;4320;51.498;6.556;2023-02-15T03:34:11;35.07;;;19.87;;
8564;SDS011;4320;51.498;6.556;2023-02-15T03:36:56;34.43;;;20.40;;
8564;SDS011;4320;51.498;6.556;2023-02-15T03:39:27;36.87;;;20.57;;
8564;SDS011;4320;51.498;6.556;2023-02-15T03:42:05;35.43;;;19.93;;
8564;SDS011;4320;51.498;6.556;2023-02-15T03:45:09;33.13;;;19.43;;
8564;SDS011;4320;51.498;6.556;2023-02-15T03:47:39;33.80;;;19.53;;
8564;SDS011;4320;51.498;6.556;2023-02-15T03:50:13;36.50;;;20.07;;
8564;SDS011;4320;51.498;6.556;2023-02-15T03:53:03;36.40;;;20.73;;
8564;SDS011;4320;51.498;6.556;2023-02-15T03:55:33;34.50;;;20.20;;
8564;SDS011;4320;51.498;6.556;2023-02-15T03:57:59;35.70;;;21.20;;
8564;SDS011;4320;51.498;6.556;2023-02-15T04:01:00;34.37;;;19.47;;
8564;SDS011;4320;51.498;6.556;2023-02-15T04:04:00;34.53;;;19.63;;
8564;SDS011;4320;51.498;6.556;2023-02-15T04:06:30;35.20;;;20.10;;
8564;SDS011;4320;51.498;6.556;2023-02-15T04:08:56;34.80;;;20.00;;
8564;SDS011;4320;51.498;6.556;2023-02-15T04:11:40;33.33;;;19.23;;
8564;SDS011;4320;51.498;6.556;2023-02-15T04:14:06;36.07;;;20.00;;
8564;SDS011;4320;51.498;6.556;2023-02-15T04:16:50;34.33;;;19.77;;
8564;SDS011;4320;51.498;6.556;2023-02-15T04:19:15;35.80;;;20.30;;
8564;SDS011;4320;51.498;6.556;2023-02-15T04:21:59;39.43;;;20.00;;
8564;SDS011;4320;51.498;6.556;2023-02-15T04:24:44;36.90;;;20.73;;
8564;SDS011;4320;51.498;6.556;2023-02-15T04:27:28;34.83;;;19.87;;
8564;SDS011;4320;51.498;6.556;2023-02-15T04:29:53;34.43;;;18.93;;
8564;SDS011;4320;51.498;6.556;2023-02-15T04:32:19;35.57;;;20.13;;
8564;SDS011;4320;51.498;6.556;2023-02-15T04:34:44;33.73;;;19.83;;
8564;SDS011;4320;51.498;6.556;2023-02-15T04:37:10;36.67;;;20.57;;
8564;SDS011;4320;51.498;6.556;2023-02-15T04:39:36;35.40;;;19.37;;
8564;SDS011;4320;51.498;6.556;2023-02-15T04:42:01;37.17;;;20.07;;
8564;SDS011;4320;51.498;6.556;2023-02-15T04:44:27;35.63;;;19.80;;
8564;SDS011;4320;51.498;6.556;2023-02-15T04:46:53;34.80;;;18.83;;
8564;SDS011;4320;51.498;6.556;2023-02-15T04:49:19;36.40;;;20.13;;
8564;SDS011;4320;51.498;6.556;2023-02-15T04:51:45;35.43;;;19.63;;
8564;SDS011;4320;51.498;6.556;2023-02-15T04:54:10;36.47;;;19.73;;
8564;SDS011;4320;51.498;6.556;2023-02-15T04:56:36;37.23;;;19.67;;
8564;SDS011;4320;51.498;6.556;2023-02-15T04:59:03;33.50;;;18.73;;
8564;SDS011;4320;51.498;6.556;2023-02-15T05:01:29;35.63;;;19.43;;
8564;SDS011;4320;51.498;6.556;2023-02-15T05:03:55;35.70;;;19.13;;
8564;SDS011;4320;51.498;6.556;2023-02-15T05:06:21;36.40;;;20.17;;
8564;SDS011;4320;51.498;6.556;2023-02-15T05:08:47;34.37;;;20.80;;
8564;SDS011;4320;51.498;6.556;2023-02-15T05:11:12;36.23;;;20.17;;
8564;SDS011;4320;51.498;6.556;2023-02-15T05:13:38;35.37;;;19.90;;
8564;SDS011;4320;51.498;6.556;2023-02-15T05:16:04;34.37;;;19.87;;
8564;SDS011;4320;51.498;6.556;2023-02-15T05:18:29;36.10;;;20.37;;
8564;SDS011;4320;51.498;6.556;2023-02-15T05:20:55;37.90;;;20.43;;
8564;SDS011;4320;51.498;6.556;2023-02-15T05:23:20;37.60;;;22.03;;
8564;SDS011;4320;51.498;6.556;2023-02-15T05:25:47;31.10;;;19.10;;
8564;SDS011;4320;51.498;6.556;2023-02-15T05:28:32;33.37;;;19.33;;
8564;SDS011;4320;51.498;6.556;2023-02-15T05:31:00;36.60;;;19.33;;
8564;SDS011;4320;51.498;6.556;2023-02-15T05:33:41;32.97;;;18.43;;
8564;SDS011;4320;51.498;6.556;2023-02-15T05:36:07;38.50;;;19.10;;
8564;SDS011;4320;51.498;6.556;2023-02-15T05:38:34;35.97;;;19.53;;
8564;SDS011;4320;51.498;6.556;2023-02-15T05:41:01;33.50;;;18.70;;
8564;SDS011;4320;51.498;6.556;2023-02-15T05:43:27;31.33;;;18.80;;
8564;SDS011;4320;51.498;6.556;2023-02-15T05:45:54;33.67;;;18.93;;
8564;SDS011;4320;51.498;6.556;2023-02-15T05:48:21;33.67;;;19.97;;
8564;SDS011;4320;51.498;6.556;2023-02-15T05:50:56;32.83;;;19.90;;
8564;SDS011;4320;51.498;6.556;2023-02-15T05:53:38;33.73;;;20.33;;
8564;SDS011;4320;51.498;6.556;2023-02-15T05:56:05;33.90;;;19.53;;
8564;SDS011;4320;51.498;6.556;2023-02-15T05:58:33;33.43;;;19.57;;
8564;SDS011;4320;51.498;6.556;2023-02-15T06:01:07;31.13;;;18.27;;
8564;SDS011;4320;51.498;6.556;2023-02-15T06:03:40;32.20;;;19.17;;
8564;SDS011;4320;51.498;6.556;2023-02-15T06:06:06;34.87;;;19.47;;
8564;SDS011;4320;51.498;6.556;2023-02-15T06:08:32;35.07;;;19.43;;
8564;SDS011;4320;51.498;6.556;2023-02-15T06:10:59;32.20;;;18.77;;
8564;SDS011;4320;51.498;6.556;2023-02-15T06:13:25;31.70;;;18.23;;
8564;SDS011;4320;51.498;6.556;2023-02-15T06:15:50;33.10;;;19.10;;
8564;SDS011;4320;51.498;6.556;2023-02-15T06:18:16;38.33;;;20.37;;
8564;SDS011;4320;51.498;6.556;2023-02-15T06:20:42;28.77;;;16.33;;
8564;SDS011;4320;51.498;6.556;2023-02-15T06:23:09;31.83;;;18.67;;
8564;SDS011;4320;51.498;6.556;2023-02-15T06:25:35;34.00;;;18.60;;
8564;SDS011;4320;51.498;6.556;2023-02-15T06:28:01;33.17;;;19.43;;
8564;SDS011;4320;51.498;6.556;2023-02-15T06:30:26;30.07;;;17.83;;
8564;SDS011;4320;51.498;6.556;2023-02-15T06:32:52;32.80;;;18.10;;
8564;SDS011;4320;51.498;6.556;2023-02-15T06:35:17;34.60;;;18.37;;
8564;SDS011;4320;51.498;6.556;2023-02-15T06:37:44;30.80;;;18.20;;
8564;SDS011;4320;51.498;6.556;2023-02-15T06:40:11;31.47;;;18.50;;
8564;SDS011;4320;51.498;6.556;2023-02-15T06:42:37;32.87;;;19.47;;
8564;SDS011;4320;51.498;6.556;2023-02-15T06:45:03;33.77;;;18.27;;
8564;SDS011;4320;51.498;6.556;2023-02-15T06:47:29;32.83;;;18.83;;
8564;SDS011;4320;51.498;6.556;2023-02-15T06:49:56;30.10;;;17.73;;
8564;SDS011;4320;51.498;6.556;2023-02-15T06:52:22;31.83;;;17.93;;
8564;SDS011;4320;51.498;6.556;2023-02-15T06:54:48;32.97;;;18.07;;
8564;SDS011;4320;51.498;6.556;2023-02-15T06:57:14;32.13;;;18.93;;
8564;SDS011;4320;51.498;6.556;2023-02-15T06:59:39;32.37;;;18.00;;
8564;SDS011;4320;51.498;6.556;2023-02-15T07:02:05;33.73;;;19.07;;
8564;SDS011;4320;51.498;6.556;2023-02-15T07:04:31;32.10;;;18.43;;
8564;SDS011;4320;51.498;6.556;2023-02-15T07:06:56;33.17;;;18.57;;
8564;SDS011;4320;51.498;6.556;2023-02-15T07:09:22;32.93;;;18.30;;
8564;SDS011;4320;51.498;6.556;2023-02-15T07:11:48;31.40;;;17.63;;
8564;SDS011;4320;51.498;6.556;2023-02-15T07:14:33;33.70;;;18.60;;
8564;SDS011;4320;51.498;6.556;2023-02-15T07:16:58;29.07;;;16.83;;
8564;SDS011;4320;51.498;6.556;2023-02-15T07:19:24;33.73;;;18.27;;
8564;SDS011;4320;51.498;6.556;2023-02-15T07:21:50;33.77;;;19.10;;
8564;SDS011;4320;51.498;6.556;2023-02-15T07:24:16;34.77;;;18.53;;
8564;SDS011;4320;51.498;6.556;2023-02-15T07:26:41;32.00;;;18.07;;
8564;SDS011;4320;51.498;6.556;2023-02-15T07:29:07;34.30;;;19.60;;
8564;SDS011;4320;51.498;6.556;2023-02-15T07:31:32;33.60;;;19.33;;
8564;SDS011;4320;51.498;6.556;2023-02-15T07:33:58;35.73;;;20.67;;
8564;SDS011;4320;51.498;6.556;2023-02-15T07:36:24;38.00;;;20.10;;
8564;SDS011;4320;51.498;6.556;2023-02-15T07:38:49;35.90;;;18.80;;
8564;SDS011;4320;51.498;6.556;2023-02-15T07:41:15;31.63;;;18.73;;
8564;SDS011;4320;51.498;6.556;2023-02-15T07:43:42;34.07;;;19.07;;
8564;SDS011;4320;51.498;6.556;2023-02-15T07:46:10;33.20;;;19.17;;
8564;SDS011;4320;51.498;6.556;2023-02-15T07:48:37;29.53;;;17.37;;
8564;SDS011;4320;51.498;6.556;2023-02-15T07:51:04;30.80;;;18.17;;
8564;SDS011;4320;51.498;6.556;2023-02-15T07:53:31;31.08;;;18.83;;
8564;SDS011;4320;51.498;6.556;2023-02-15T07:56:01;30.15;;;18.10;;
8564;SDS011;4320;51.498;6.556;2023-02-15T07:58:28;27.23;;;16.88;;
8564;SDS011;4320;51.498;6.556;2023-02-15T08:01:26;28.98;;;17.48;;
8564;SDS011;4320;51.498;6.556;2023-02-15T08:03:55;28.83;;;17.92;;
8564;SDS011;4320;51.498;6.556;2023-02-15T08:06:23;25.10;;;17.45;;
8564;SDS011;4320;51.498;6.556;2023-02-15T08:08:50;28.52;;;17.25;;
8564;SDS011;4320;51.498;6.556;2023-02-15T08:19:13;22.92;;;15.98;;
8564;SDS011;4320;51.498;6.556;2023-02-15T08:21:44;24.42;;;16.90;;
8564;SDS011;4320;51.498;6.556;2023-02-15T08:24:11;22.42;;;16.20;;
8564;SDS011;4320;51.498;6.556;2023-02-15T08:26:38;22.05;;;16.05;;
8564;SDS011;4320;51.498;6.556;2023-02-15T08:29:05;25.20;;;16.13;;
8564;SDS011;4320;51.498;6.556;2023-02-15T08:31:32;22.75;;;16.42;;
8564;SDS011;4320;51.498;6.556;2023-02-15T08:33:58;23.48;;;16.42;;
8564;SDS011;4320;51.498;6.556;2023-02-15T08:36:26;25.73;;;17.27;;
8564;SDS011;4320;51.498;6.556;2023-02-15T08:38:53;24.60;;;16.20;;
8564;SDS011;4320;51.498;6.556;2023-02-15T08:41:21;23.70;;;15.98;;
8564;SDS011;4320;51.498;6.556;2023-02-15T08:43:58;23.23;;;16.55;;
8564;SDS011;4320;51.498;6.556;2023-02-15T08:46:26;22.08;;;17.20;;
8564;SDS011;4320;51.498;6.556;2023-02-15T08:48:54;23.77;;;16.90;;
8564;SDS011;4320;51.498;6.556;2023-02-15T08:51:20;22.80;;;16.80;;
8564;SDS011;4320;51.498;6.556;2023-02-15T08:53:48;23.02;;;17.13;;
8564;SDS011;4320;51.498;6.556;2023-02-15T08:56:18;24.35;;;15.50;;
8564;SDS011;4320;51.498;6.556;2023-02-15T08:58:46;22.67;;;15.63;;
8564;SDS011;4320;51.498;6.556;2023-02-15T09:01:16;22.48;;;15.57;;
8564;SDS011;4320;51.498;6.556;2023-02-15T09:03:43;23.00;;;16.05;;
8564;SDS011;4320;51.498;6.556;2023-02-15T09:06:10;22.35;;;15.90;;
8564;SDS011;4320;51.498;6.556;2023-02-15T09:08:36;22.77;;;14.77;;
8564;SDS011;4320;51.498;6.556;2023-02-15T09:13:35;23.10;;;14.63;;
8564;SDS011;4320;51.498;6.556;2023-02-15T09:16:04;24.08;;;15.52;;
8564;SDS011;4320;51.498;6.556;2023-02-15T09:18:32;25.05;;;14.57;;
8564;SDS011;4320;51.498;6.556;2023-02-15T09:21:10;27.55;;;16.33;;
8564;SDS011;4320;51.498;6.556;2023-02-15T09:23:39;27.73;;;15.35;;
8564;SDS011;4320;51.498;6.556;2023-02-15T09:26:10;21.08;;;14.52;;
8564;SDS011;4320;51.498;6.556;2023-02-15T09:28:40;20.70;;;14.35;;
8564;SDS011;4320;51.498;6.556;2023-02-15T09:31:25;21.80;;;14.57;;
8564;SDS011;4320;51.498;6.556;2023-02-15T09:33:53;22.17;;;14.55;;
8564;SDS011;4320;51.498;6.556;2023-02-15T09:36:23;22.58;;;14.60;;
8564;SDS011;4320;51.498;6.556;2023-02-15T09:39:11;23.60;;;14.50;;
8564;SDS011;4320;51.498;6.556;2023-02-15T09:50:15;20.27;;;15.07;;
8564;SDS011;4320;51.498;6.556;2023-02-15T09:53:26;21.80;;;15.13;;
8564;SDS011;4320;51.498;6.556;2023-02-15T09:58:34;20.27;;;14.70;;
8564;SDS011;4320;51.498;6.556;2023-02-15T10:04:34;18.83;;;14.85;;
8564;SDS011;4320;51.498;6.556;2023-02-15T10:07:22;18.13;;;14.07;;
8564;SDS011;4320;51.498;6.556;2023-02-15T10:13:21;20.15;;;14.57;;
8564;SDS011;4320;51.498;6.556;2023-02-15T10:27:01;17.98;;;13.77;;
8564;SDS011;4320;51.498;6.556;2023-02-15T10:29:47;20.48;;;14.50;;
8564;SDS011;4320;51.498;6.556;2023-02-15T10:32:34;19.00;;;13.80;;
8564;SDS011;4320;51.498;6.556;2023-02-15T10:35:25;21.55;;;14.93;;
8564;SDS011;4320;51.498;6.556;2023-02-15T10:38:02;17.15;;;12.93;;
8564;SDS011;4320;51.498;6.556;2023-02-15T10:43:39;19.05;;;13.80;;
8564;SDS011;4320;51.498;6.556;2023-02-15T10:54:24;23.25;;;13.48;;
8564;SDS011;4320;51.498;6.556;2023-02-15T10:57:00;18.77;;;13.45;;
8564;SDS011;4320;51.498;6.556;2023-02-15T11:00:00;20.85;;;12.73;;
8564;SDS011;4320;51.498;6.556;2023-02-15T11:02:55;18.15;;;13.27;;
8564;SDS011;4320;51.498;6.556;2023-02-15T11:08:39;20.83;;;14.27;;
8564;SDS011;4320;51.498;6.556;2023-02-15T11:11:31;22.60;;;14.23;;
8564;SDS011;4320;51.498;6.556;2023-02-15T11:14:01;20.40;;;14.18;;
8564;SDS011;4320;51.498;6.556;2023-02-15T11:16:37;20.08;;;14.73;;
8564;SDS011;4320;51.498;6.556;2023-02-15T11:19:53;21.45;;;15.18;;
8564;SDS011;4320;51.498;6.556;2023-02-15T11:22:04;20.55;;;13.15;;
8564;SDS011;4320;51.498;6.556;2023-02-15T11:24:31;19.08;;;14.38;;
8564;SDS011;4320;51.498;6.556;2023-02-15T11:27:02;17.83;;;13.45;;
8564;SDS011;4320;51.498;6.556;2023-02-15T11:29:32;21.08;;;13.93;;
8564;SDS011;4320;51.498;6.556;2023-02-15T11:32:12;19.75;;;14.07;;
8564;SDS011;4320;51.498;6.556;2023-02-15T11:35:01;17.83;;;13.20;;
8564;SDS011;4320;51.498;6.556;2023-02-15T11:40:27;22.90;;;13.35;;
8564;SDS011;4320;51.498;6.556;2023-02-15T11:43:11;18.63;;;13.00;;
8564;SDS011;4320;51.498;6.556;2023-02-15T11:45:42;19.58;;;13.73;;
8564;SDS011;4320;51.498;6.556;2023-02-15T11:48:10;20.92;;;14.43;;
8564;SDS011;4320;51.498;6.556;2023-02-15T11:50:37;21.80;;;15.02;;
8564;SDS011;4320;51.498;6.556;2023-02-15T11:53:16;19.45;;;14.50;;
8564;SDS011;4320;51.498;6.556;2023-02-15T11:55:46;22.58;;;13.90;;
8564;SDS011;4320;51.498;6.556;2023-02-15T11:58:21;23.63;;;14.10;;
8564;SDS011;4320;51.498;6.556;2023-02-15T12:06:33;19.52;;;13.07;;
8564;SDS011;4320;51.498;6.556;2023-02-15T12:11:39;23.65;;;13.35;;
8564;SDS011;4320;51.498;6.556;2023-02-15T12:14:09;21.52;;;13.45;;
8564;SDS011;4320;51.498;6.556;2023-02-15T12:16:44;19.70;;;12.77;;
8564;SDS011;4320;51.498;6.556;2023-02-15T12:19:27;19.05;;;13.35;;
8564;SDS011;4320;51.498;6.556;2023-02-15T12:21:53;19.15;;;13.70;;
8564;SDS011;4320;51.498;6.556;2023-02-15T12:24:23;19.45;;;12.77;;
8564;SDS011;4320;51.498;6.556;2023-02-15T12:26:59;21.15;;;13.40;;
8564;SDS011;4320;51.498;6.556;2023-02-15T12:29:30;23.60;;;13.10;;
8564;SDS011;4320;51.498;6.556;2023-02-15T12:32:17;20.42;;;13.10;;
8564;SDS011;4320;51.498;6.556;2023-02-15T12:34:47;19.55;;;13.13;;
8564;SDS011;4320;51.498;6.556;2023-02-15T12:37:16;19.75;;;13.50;;
8564;SDS011;4320;51.498;6.556;2023-02-15T12:39:55;21.85;;;14.23;;
8564;SDS011;4320;51.498;6.556;2023-02-15T12:42:22;22.08;;;12.82;;
8564;SDS011;4320;51.498;6.556;2023-02-15T12:44:53;22.67;;;12.95;;
8564;SDS011;4320;51.498;6.556;2023-02-15T12:47:25;22.27;;;13.68;;
8564;SDS011;4320;51.498;6.556;2023-02-15T12:50:08;20.90;;;13.32;;
8564;SDS011;4320;51.498;6.556;2023-02-15T12:52:45;19.77;;;12.57;;
8564;SDS011;4320;51.498;6.556;2023-02-15T12:55:20;20.45;;;13.43;;
8564;SDS011;4320;51.498;6.556;2023-02-15T12:57:46;20.08;;;12.23;;
8564;SDS011;4320;51.498;6.556;2023-02-15T13:02:51;20.60;;;12.90;;
8564;SDS011;4320;51.498;6.556;2023-02-15T13:05:25;21.25;;;13.55;;
8564;SDS011;4320;51.498;6.556;2023-02-15T13:08:03;22.48;;;14.20;;
8564;SDS011;4320;51.498;6.556;2023-02-15T13:10:57;23.58;;;13.70;;
8564;SDS011;4320;51.498;6.556;2023-02-15T13:13:35;24.63;;;14.70;;
8564;SDS011;4320;51.498;6.556;2023-02-15T13:16:11;19.65;;;12.93;;
8564;SDS011;4320;51.498;6.556;2023-02-15T13:18:39;24.92;;;13.38;;
8564;SDS011;4320;51.498;6.556;2023-02-15T13:21:14;20.52;;;12.68;;
8564;SDS011;4320;51.498;6.556;2023-02-15T13:23:46;22.00;;;14.15;;
8564;SDS011;4320;51.498;6.556;2023-02-15T13:26:15;20.83;;;13.00;;
8564;SDS011;4320;51.498;6.556;2023-02-15T13:28:45;23.30;;;14.00;;
8564;SDS011;4320;51.498;6.556;2023-02-15T13:31:14;21.63;;;13.65;;
8564;SDS011;4320;51.498;6.556;2023-02-15T13:33:43;22.48;;;13.30;;
8564;SDS011;4320;51.498;6.556;2023-02-15T13:36:27;23.63;;;13.93;;
8564;SDS011;4320;51.498;6.556;2023-02-15T13:52:17;21.98;;;13.13;;
8564;SDS011;4320;51.498;6.556;2023-02-15T13:54:53;21.83;;;13.77;;
8564;SDS011;4320;51.498;6.556;2023-02-15T13:57:45;21.15;;;13.38;;
8564;SDS011;4320;51.498;6.556;2023-02-15T14:00:31;18.73;;;12.90;;
8564;SDS011;4320;51.498;6.556;2023-02-15T14:06:36;20.85;;;13.07;;
8564;SDS011;4320;51.498;6.556;2023-02-15T14:09:27;21.20;;;13.55;;
8564;SDS011;4320;51.498;6.556;2023-02-15T14:12:29;20.50;;;13.07;;
8564;SDS011;4320;51.498;6.556;2023-02-15T14:18:07;21.05;;;13.02;;
8564;SDS011;4320;51.498;6.556;2023-02-15T14:26:00;26.15;;;12.82;;
8564;SDS011;4320;51.498;6.556;2023-02-15T14:28:35;20.85;;;13.43;;
8564;SDS011;4320;51.498;6.556;2023-02-15T14:31:14;21.33;;;13.15;;
8564;SDS011;4320;51.498;6.556;2023-02-15T14:33:47;21.35;;;13.75;;
8564;SDS011;4320;51.498;6.556;2023-02-15T14:36:19;20.20;;;12.52;;
8564;SDS011;4320;51.498;6.556;2023-02-15T14:41:59;20.75;;;12.60;;
8564;SDS011;4320;51.498;6.556;2023-02-15T14:44:40;19.50;;;12.38;;
8564;SDS011;4320;51.498;6.556;2023-02-15T14:47:15;23.45;;;12.65;;
8564;SDS011;4320;51.498;6.556;2023-02-15T14:49:47;22.40;;;12.65;;
8564;SDS011;4320;51.498;6.556;2023-02-15T14:52:12;21.60;;;12.93;;
8564;SDS011;4320;51.498;6.556;2023-02-15T15:05:11;22.80;;;12.63;;
8564;SDS011;4320;51.498;6.556;2023-02-15T15:08:00;22.60;;;13.77;;
8564;SDS011;4320;51.498;6.556;2023-02-15T15:10:45;23.48;;;13.55;;
8564;SDS011;4320;51.498;6.556;2023-02-15T15:15:56;21.98;;;12.90;;
8564;SDS011;4320;51.498;6.556;2023-02-15T15:18:45;21.63;;;13.90;;
8564;SDS011;4320;51.498;6.556;2023-02-15T15:50:15;26.88;;;12.48;;
8564;SDS011;4320;51.498;6.556;2023-02-15T15:52:44;20.20;;;12.88;;
8564;SDS011;4320;51.498;6.556;2023-02-15T15:55:17;22.45;;;13.07;;
8564;SDS011;4320;51.498;6.556;2023-02-15T15:57:46;22.15;;;12.90;;
8564;SDS011;4320;51.498;6.556;2023-02-15T16:00:24;22.88;;;13.27;;
8564;SDS011;4320;51.498;6.556;2023-02-15T16:02:51;22.50;;;13.63;;
8564;SDS011;4320;51.498;6.556;2023-02-15T16:05:17;19.63;;;12.98;;
8564;SDS011;4320;51.498;6.556;2023-02-15T16:07:43;21.67;;;12.30;;
8564;SDS011;4320;51.498;6.556;2023-02-15T16:10:19;18.98;;;12.85;;
8564;SDS011;4320;51.498;6.556;2023-02-15T16:12:49;23.48;;;13.77;;
8564;SDS011;4320;51.498;6.556;2023-02-15T16:15:32;21.25;;;13.18;;
8564;SDS011;4320;51.498;6.556;2023-02-15T16:18:17;21.95;;;13.40;;
8564;SDS011;4320;51.498;6.556;2023-02-15T16:20:52;19.45;;;12.95;;
8564;SDS011;4320;51.498;6.556;2023-02-15T16:29:00;23.63;;;13.90;;
8564;SDS011;4320;51.498;6.556;2023-02-15T16:31:26;22.50;;;13.68;;
8564;SDS011;4320;51.498;6.556;2023-02-15T16:33:52;25.95;;;13.48;;
8564;SDS011;4320;51.498;6.556;2023-02-15T16:36:23;22.38;;;13.18;;
8564;SDS011;4320;51.498;6.556;2023-02-15T16:41:23;25.95;;;14.25;;
8564;SDS011;4320;51.498;6.556;2023-02-15T16:43:52;20.52;;;12.57;;
8564;SDS011;4320;51.498;6.556;2023-02-15T16:46:23;23.85;;;13.30;;
8564;SDS011;4320;51.498;6.556;2023-02-15T16:48:52;20.80;;;12.48;;
8564;SDS011;4320;51.498;6.556;2023-02-15T16:51:23;23.77;;;12.43;;
8564;SDS011;4320;51.498;6.556;2023-02-15T16:53:51;20.13;;;13.27;;
8564;SDS011;4320;51.498;6.556;2023-02-15T16:56:22;21.83;;;13.20;;
8564;SDS011;4320;51.498;6.556;2023-02-15T16:58:50;19.48;;;13.00;;
8564;SDS011;4320;51.498;6.556;2023-02-15T17:01:19;22.25;;;13.05;;
8564;SDS011;4320;51.498;6.556;2023-02-15T17:03:49;21.27;;;13.70;;
8564;SDS011;4320;51.498;6.556;2023-02-15T17:06:26;21.02;;;13.13;;
8564;SDS011;4320;51.498;6.556;2023-02-15T17:09:02;24.35;;;12.77;;
8564;SDS011;4320;51.498;6.556;2023-02-15T17:11:33;22.45;;;13.50;;
8564;SDS011;4320;51.498;6.556;2023-02-15T17:16:34;20.23;;;13.10;;
8564;SDS011;4320;51.498;6.556;2023-02-15T17:19:09;24.13;;;13.05;;
8564;SDS011;4320;51.498;6.556;2023-02-15T17:21:41;20.23;;;13.20;;
8564;SDS011;4320;51.498;6.556;2023-02-15T17:24:17;19.23;;;13.40;;
8564;SDS011;4320;51.498;6.556;2023-02-15T17:26:54;21.30;;;13.00;;
8564;SDS011;4320;51.498;6.556;2023-02-15T17:31:59;33.35;;;18.77;;
8564;SDS011;4320;51.498;6.556;2023-02-15T17:37:59;23.95;;;14.07;;
8564;SDS011;4320;51.498;6.556;2023-02-15T17:40:07;26.80;;;16.23;;
8564;SDS011;4320;51.498;6.556;2023-02-15T17:42:49;23.70;;;13.73;;
8564;SDS011;4320;51.498;6.556;2023-02-15T17:45:15;24.40;;;14.80;;
8564;SDS011;4320;51.498;6.556;2023-02-15T17:47:41;20.77;;;13.95;;
8564;SDS011;4320;51.498;6.556;2023-02-15T17:50:07;25.17;;;16.35;;
8564;SDS011;4320;51.498;6.556;2023-02-15T17:52:40;22.20;;;14.27;;
8564;SDS011;4320;51.498;6.556;2023-02-15T17:55:13;28.33;;;14.55;;
8564;SDS011;4320;51.498;6.556;2023-02-15T17:57:59;24.65;;;15.30;;
8564;SDS011;4320;51.498;6.556;2023-02-15T18:00:26;22.58;;;14.07;;
8564;SDS011;4320;51.498;6.556;2023-02-15T18:03:11;23.23;;;13.68;;
8564;SDS011;4320;51.498;6.556;2023-02-15T18:05:56;21.67;;;13.30;;
8564;SDS011;4320;51.498;6.556;2023-02-15T18:08:41;19.70;;;12.90;;
8564;SDS011;4320;51.498;6.556;2023-02-15T18:11:26;22.70;;;13.80;;
8564;SDS011;4320;51.498;6.556;2023-02-15T18:14:07;20.33;;;13.15;;
8564;SDS011;4320;51.498;6.556;2023-02-15T18:16:35;20.63;;;13.00;;
8564;SDS011;4320;51.498;6.556;2023-02-15T18:19:05;20.23;;;12.57;;
8564;SDS011;4320;51.498;6.556;2023-02-15T18:21:37;20.42;;;14.02;;
8564;SDS011;4320;51.498;6.556;2023-02-15T18:24:03;21.48;;;12.68;;
8564;SDS011;4320;51.498;6.556;2023-02-15T18:26:29;22.75;;;13.30;;